logo dgac
Miércoles 14 de Noviembre del 2018
Buscar por aerodromo o helipuerto
Ingrese nombre de aeródromo, localidad o designador OACI:

Aeródromo: Teniente Vidal (PUB) (SCCY)

Ubicación: Coyhaique, XI Región, Chile (45º 35' 37'' S, 72º 06' 19'' W) Ver ubicación en el mapa

Pistas

Orientación Dimensión Pendiente Superficie Resistencia APCH THR RWY PAPI
03/21 1546 x 30 FM THR 21 - 246m CONC 1.300 m ASPH PCN 30 F/B/X/T No No
Horas de operación HJ
Elevación 311 m / 1020 ft
Otra Información Adm : D.G.A.C.
Uso : PUB
ubicado 5 km SW Coyhaique
TEL/FAX 67 2235003

Otra información ver AIP-Chile Volumen I AD 3.9-3.12-C

CCCM/FCCV Descargar
andera de Chile
Mapa de Teniente Vidal (PUB) (SCCY)

Último METAR

METAR SCCY 142000Z VRB08G20KT 9999 SCT033 12/02 Q1001

Último TAF

TAF SCCY 141040Z 1412/1500 06005KT 8000 -RA OVC040 TN10/1412Z TX14/1418Z BECMG 1418/1420 9999 NSW SCT050

Últimas fotos cámaras

Imagen aerodromo Teniente Vidal (PUB) (SCCY) N-Este tomada el 14-11-2018 05:39:15 Imagen aerodromo Teniente Vidal (PUB) (SCCY) Sur tomada el 14-11-2018 05:37:49

Último NOTAM

C3152/18 NOTAMN Q)SCTZ/QSTLT/IV/BO/A/000/999/4536S07206W005 A)SCCY B)1810081454 C)1901082359 E)TWR CON VIS LTD HACIA THR 21 DEBIDO A ARBOLES

LLegadas a Teniente Vidal (PUB) (SCCY)

En vuelo

Vuelo Procedencia Hora Despegue Local Hora Arribo Local

Salidas de Teniente Vidal (PUB) (SCCY)

En vuelo

Vuelo Hacia Hora Despegue Local Hora Arribo Local